Time;durP1;ratioP1;P1;durP2;ratioP2;P2;SDS_P1;SDS_P2;PMS_P1;PMS_P2;Temp;Humidity;BMP_temperature;BMP_pressure;BME280_temperature;BME280_humidity;BME280_pressure;Samples;Min_cycle;Max_cycle;Signal;HPM_P1;HPM_P2
2022/11/09 00:00:39;;;;;;;2.40;1.52;;;14.50;77.70;;;;;;5048661;28;20029;-73
2022/11/09 00:03:06;;;;;;;2.75;1.48;;;14.50;77.60;;;;;;5048623;28;20035;-72
2022/11/09 00:05:32;;;;;;;2.20;1.30;;;14.50;77.40;;;;;;5057714;28;20526;-73
2022/11/09 00:07:57;;;;;;;3.50;1.17;;;14.50;77.70;;;;;;5053504;28;20056;-73
2022/11/09 00:10:23;;;;;;;2.30;1.38;;;14.50;77.30;;;;;;5053873;28;20890;-81
2022/11/09 00:12:49;;;;;;;1.58;1.38;;;14.50;77.80;;;;;;5060600;28;20043;-73
2022/11/09 00:15:15;;;;;;;3.05;1.48;;;14.50;77.60;;;;;;5051649;28;20484;-73
2022/11/09 00:17:41;;;;;;;2.75;1.40;;;14.50;77.60;;;;;;5047838;28;20033;-72
2022/11/09 00:20:07;;;;;;;2.78;1.40;;;14.50;77.90;;;;;;5048376;28;20032;-73
2022/11/09 00:22:33;;;;;;;3.13;1.40;;;14.50;77.70;;;;;;5054837;28;20036;-72
2022/11/09 00:24:59;;;;;;;2.00;1.38;;;14.50;77.30;;;;;;5036135;28;20052;-73
2022/11/09 00:27:26;;;;;;;2.30;1.20;;;14.50;77.70;;;;;;5035020;28;20511;-72
2022/11/09 00:29:52;;;;;;;3.17;1.27;;;14.50;77.10;;;;;;5034460;28;20569;-72
2022/11/09 00:32:17;;;;;;;2.92;1.38;;;14.60;77.30;;;;;;5050839;28;20037;-73
2022/11/09 00:34:43;;;;;;;3.80;1.67;;;14.60;77.20;;;;;;5029162;28;20408;-72
2022/11/09 00:37:09;;;;;;;2.35;1.48;;;14.60;77.00;;;;;;5052785;28;20033;-73
2022/11/09 00:39:37;;;;;;;1.92;1.45;;;14.60;76.90;;;;;;5051434;28;20540;-72
2022/11/09 00:42:03;;;;;;;4.60;1.60;;;14.60;77.50;;;;;;5050115;28;20132;-72
2022/11/09 00:44:29;;;;;;;2.85;1.25;;;14.50;77.30;;;;;;5039155;28;20032;-72
2022/11/09 00:46:55;;;;;;;2.15;1.33;;;14.50;76.90;;;;;;5056324;28;20056;-73
2022/11/09 00:49:21;;;;;;;5.55;1.85;;;14.60;76.70;;;;;;5033131;28;20098;-72
2022/11/09 00:51:46;;;;;;;2.38;1.48;;;14.60;77.10;;;;;;5032969;28;20028;-73
2022/11/09 00:54:12;;;;;;;1.55;1.23;;;14.60;76.70;;;;;;5051484;28;20035;-73
2022/11/09 00:56:38;;;;;;;2.55;1.52;;;14.60;76.80;;;;;;5034859;28;20028;-73
2022/11/09 00:59:04;;;;;;;2.40;1.58;;;14.70;76.60;;;;;;5051538;28;20525;-73
2022/11/09 01:01:31;;;;;;;3.53;1.58;;;14.70;76.40;;;;;;5041109;28;20025;-73
2022/11/09 01:03:57;;;;;;;2.60;1.20;;;14.70;76.50;;;;;;5039204;28;20060;-72
2022/11/09 01:06:24;;;;;;;1.48;1.17;;;14.70;76.60;;;;;;5051331;28;20040;-73
2022/11/09 01:08:51;;;;;;;2.53;1.40;;;14.70;76.70;;;;;;5048004;28;20057;-72
2022/11/09 01:11:18;;;;;;;1.75;1.23;;;14.60;76.40;;;;;;5025320;28;20033;-81
2022/11/09 01:13:44;;;;;;;2.95;1.30;;;14.60;76.50;;;;;;5039902;28;20574;-82
2022/11/09 01:16:14;;;;;;;2.60;1.17;;;14.60;76.20;;;;;;5050226;28;20124;-82
2022/11/09 01:18:40;;;;;;;1.85;1.42;;;14.50;77.00;;;;;;5054900;28;20495;-82
2022/11/09 01:21:09;;;;;;;3.03;1.30;;;14.50;76.90;;;;;;5063771;28;20036;-82
2022/11/09 01:23:35;;;;;;;2.53;1.40;;;14.50;77.20;;;;;;5082415;28;20034;-82
2022/11/09 01:26:06;;;;;;;2.92;1.50;;;14.40;77.60;;;;;;5043530;28;20114;-81
2022/11/09 01:28:32;;;;;;;2.88;1.45;;;14.40;78.10;;;;;;5057409;28;20035;-81
2022/11/09 01:31:06;;;;;;;1.73;1.20;;;14.40;77.60;;;;;;5047201;28;20037;-82
2022/11/09 01:33:33;;;;;;;2.67;1.20;;;14.30;77.90;;;;;;5036014;28;20024;-82
2022/11/09 01:36:04;;;;;;;2.95;1.42;;;14.30;78.10;;;;;;5050352;28;20024;-82
2022/11/09 01:38:30;;;;;;;1.85;1.30;;;14.30;77.80;;;;;;5040691;28;20032;-81
2022/11/09 01:40:56;;;;;;;1.50;1.20;;;14.30;77.90;;;;;;5064622;28;20060;-81
2022/11/09 01:43:23;;;;;;;2.88;1.30;;;14.30;77.60;;;;;;5058971;28;20125;-81
2022/11/09 01:45:55;;;;;;;2.00;1.30;;;14.30;78.00;;;;;;5064438;28;20051;-81
2022/11/09 01:48:29;;;;;;;2.15;1.23;;;14.30;78.20;;;;;;5048220;28;20162;-81
2022/11/09 01:51:00;;;;;;;2.58;1.65;;;14.20;78.10;;;;;;5039752;28;20032;-82
2022/11/09 01:53:33;;;;;;;2.03;1.65;;;14.20;77.80;;;;;;5060988;28;20858;-81
2022/11/09 01:56:03;;;;;;;3.28;1.42;;;14.20;78.20;;;;;;5039376;28;20028;-81
2022/11/09 01:58:58;;;;;;;3.03;1.50;;;14.20;77.70;;;;;;5046817;28;20024;-81
2022/11/09 02:01:28;;;;;;;3.38;1.60;;;14.20;78.00;;;;;;5043934;28;20028;-81
2022/11/09 02:04:08;;;;;;;2.75;1.50;;;14.10;78.00;;;;;;5048215;28;20778;-81
2022/11/09 02:06:35;;;;;;;2.75;1.50;;;14.10;78.60;;;;;;5055467;28;20868;-81
2022/11/09 02:09:44;;;;;;;2.75;1.35;;;14.00;78.90;;;;;;5062110;28;20046;-81
2022/11/09 02:12:10;;;;;;;2.08;1.42;;;14.00;78.80;;;;;;5038349;28;20072;-81
2022/11/09 02:14:37;;;;;;;2.20;1.60;;;14.00;78.90;;;;;;5044707;28;20021;-81
2022/11/09 02:17:04;;;;;;;2.15;1.48;;;14.00;78.90;;;;;;5067124;28;20028;-82
2022/11/09 02:19:30;;;;;;;2.28;1.45;;;13.90;78.50;;;;;;5049126;28;20024;-81
2022/11/09 02:21:56;;;;;;;3.50;1.60;;;13.90;79.00;;;;;;5051170;28;20543;-82
2022/11/09 02:24:24;;;;;;;4.18;1.60;;;13.80;79.40;;;;;;5057933;28;20044;-82
2022/11/09 02:26:51;;;;;;;3.47;1.50;;;13.70;79.50;;;;;;5062260;28;20036;-81
2022/11/09 02:29:25;;;;;;;3.65;1.35;;;13.70;80.00;;;;;;5062076;28;20063;-81
2022/11/09 02:32:05;;;;;;;2.28;1.20;;;13.80;79.50;;;;;;5026642;28;20039;-81
2022/11/09 02:34:31;;;;;;;2.00;1.30;;;13.70;79.40;;;;;;5040946;28;20463;-81
2022/11/09 02:36:57;;;;;;;2.03;1.42;;;13.70;79.80;;;;;;5034841;28;20029;-81
2022/11/09 02:39:26;;;;;;;2.75;1.42;;;13.70;79.80;;;;;;5061210;28;20033;-81
2022/11/09 02:41:57;;;;;;;2.80;1.40;;;13.70;80.00;;;;;;5054974;28;20112;-82
2022/11/09 02:44:29;;;;;;;2.33;1.50;;;13.70;79.70;;;;;;5042512;28;20127;-81
2022/11/09 02:46:55;;;;;;;2.97;1.25;;;13.70;79.60;;;;;;5039838;28;20635;-82
2022/11/09 02:49:20;;;;;;;1.75;1.30;;;13.60;80.20;;;;;;5034515;28;20043;-81
2022/11/09 02:51:46;;;;;;;3.05;1.40;;;13.70;80.10;;;;;;5049210;28;20064;-81
2022/11/09 02:54:12;;;;;;;3.83;1.55;;;13.70;79.50;;;;;;5046472;28;20032;-81
2022/11/09 02:56:39;;;;;;;4.22;1.08;;;13.70;79.40;;;;;;5049063;28;20032;-82
2022/11/09 02:59:05;;;;;;;1.77;1.27;;;13.80;79.20;;;;;;5085960;28;20479;-81
2022/11/09 03:01:32;;;;;;;2.22;1.60;;;13.90;78.80;;;;;;5043646;28;20052;-81
2022/11/09 03:03:58;;;;;;;2.85;1.20;;;13.90;78.70;;;;;;5052937;28;20132;-82
2022/11/09 03:06:33;;;;;;;2.05;1.25;;;14.00;78.50;;;;;;5046922;28;20037;-81
2022/11/09 03:09:06;;;;;;;2.47;1.60;;;14.00;78.60;;;;;;5040285;28;20033;-81
2022/11/09 03:11:33;;;;;;;3.60;1.33;;;14.10;78.10;;;;;;5052547;28;20032;-81
2022/11/09 03:13:59;;;;;;;2.50;1.40;;;14.10;77.80;;;;;;5052066;28;20021;-81
2022/11/09 03:16:25;;;;;;;2.85;1.38;;;14.20;77.60;;;;;;5052377;28;20903;-82
2022/11/09 03:18:51;;;;;;;2.28;1.38;;;14.20;77.40;;;;;;5042195;28;20028;-81
2022/11/09 03:21:17;;;;;;;2.22;1.42;;;14.20;77.40;;;;;;5042727;28;20651;-81
2022/11/09 03:23:44;;;;;;;6.18;1.48;;;14.20;77.60;;;;;;5043503;28;20032;-82
2022/11/09 03:26:11;;;;;;;2.58;1.40;;;14.20;78.00;;;;;;5052227;28;20024;-80
2022/11/09 03:28:36;;;;;;;5.30;1.38;;;14.20;78.70;;;;;;5068626;28;20029;-81
2022/11/09 03:31:03;;;;;;;2.83;1.42;;;14.10;79.10;;;;;;5041134;28;20060;-73
2022/11/09 03:33:29;;;;;;;1.23;1.00;;;14.10;79.80;;;;;;5040904;28;20053;-72
2022/11/09 03:35:55;;;;;;;1.92;1.30;;;14.10;79.20;;;;;;5055708;28;20083;-73
2022/11/09 03:38:22;;;;;;;3.85;1.20;;;14.10;79.40;;;;;;5052827;28;20031;-73
2022/11/09 03:40:49;;;;;;;1.10;1.00;;;14.20;79.80;;;;;;5036786;28;20112;-72
2022/11/09 03:43:16;;;;;;;3.00;1.23;;;14.20;79.60;;;;;;5031673;28;20890;-72
2022/11/09 03:45:42;;;;;;;1.70;1.52;;;14.20;79.50;;;;;;5038716;28;20024;-73
2022/11/09 03:48:08;;;;;;;2.28;1.48;;;14.20;79.90;;;;;;5050009;28;20039;-72
2022/11/09 03:50:35;;;;;;;2.35;1.85;;;14.20;79.60;;;;;;5058664;28;20032;-73
2022/11/09 03:53:01;;;;;;;1.88;1.50;;;14.20;79.80;;;;;;5053473;28;20570;-73
2022/11/09 03:55:27;;;;;;;2.22;1.63;;;14.10;79.80;;;;;;5053436;28;20037;-73
2022/11/09 03:57:53;;;;;;;2.50;1.40;;;14.10;80.60;;;;;;5048788;28;20377;-73
2022/11/09 04:00:21;;;;;;;1.65;1.20;;;14.10;80.50;;;;;;5049214;28;20032;-73
2022/11/09 04:02:49;;;;;;;1.70;0.90;;;14.00;80.50;;;;;;5048659;28;20029;-72
2022/11/09 04:05:15;;;;;;;3.63;1.50;;;13.90;80.70;;;;;;5045638;28;20722;-73
2022/11/09 04:07:47;;;;;;;2.28;1.17;;;13.90;81.40;;;;;;5046887;28;20517;-72
2022/11/09 04:10:13;;;;;;;3.83;1.52;;;13.90;81.40;;;;;;5051327;28;20040;-73
2022/11/09 04:12:38;;;;;;;1.70;1.05;;;14.00;80.90;;;;;;5054670;28;20032;-73
2022/11/09 04:15:05;;;;;;;3.42;1.50;;;14.10;80.40;;;;;;5048834;28;20029;-72
2022/11/09 04:17:31;;;;;;;2.05;1.30;;;14.10;81.50;;;;;;5050787;28;20097;-72
2022/11/09 04:19:56;;;;;;;2.08;1.40;;;14.10;81.00;;;;;;5047238;28;20932;-73
2022/11/09 04:22:22;;;;;;;2.90;1.13;;;14.10;81.30;;;;;;5053151;28;20115;-73
2022/11/09 04:24:48;;;;;;;4.75;1.50;;;14.10;81.60;;;;;;5047741;28;20060;-72
2022/11/09 04:27:14;;;;;;;1.38;1.20;;;14.10;81.90;;;;;;5048251;28;20032;-72
2022/11/09 04:29:40;;;;;;;3.60;1.40;;;14.20;81.60;;;;;;5051599;28;20040;-71
2022/11/09 04:32:05;;;;;;;3.28;1.52;;;14.10;81.40;;;;;;5052803;28;20628;-72
2022/11/09 04:34:31;;;;;;;1.52;1.27;;;14.10;81.60;;;;;;5051959;28;20033;-73
2022/11/09 04:36:57;;;;;;;3.72;1.70;;;14.10;81.80;;;;;;5051055;28;20089;-72
2022/11/09 04:39:23;;;;;;;3.05;2.05;;;14.10;82.60;;;;;;5051668;28;20260;-72
2022/11/09 04:41:48;;;;;;;2.63;1.42;;;14.10;82.80;;;;;;5048663;28;20036;-73
2022/11/09 04:44:14;;;;;;;3.35;1.67;;;13.90;83.20;;;;;;5049339;28;20036;-73
2022/11/09 04:46:40;;;;;;;2.85;1.60;;;13.90;84.00;;;;;;5046852;28;20159;-72
2022/11/09 04:49:06;;;;;;;3.67;1.30;;;13.80;84.50;;;;;;5053964;28;20032;-73
2022/11/09 04:51:31;;;;;;;2.40;1.50;;;13.80;84.00;;;;;;5052967;28;20024;-73
2022/11/09 04:53:57;;;;;;;3.65;1.70;;;13.80;84.40;;;;;;5051442;28;20036;-73
2022/11/09 04:56:23;;;;;;;1.98;1.45;;;13.80;84.60;;;;;;5048258;28;20526;-72
2022/11/09 04:58:49;;;;;;;2.95;1.25;;;13.80;84.30;;;;;;5032799;28;20028;-73
2022/11/09 05:01:15;;;;;;;4.55;1.52;;;13.90;84.20;;;;;;5049169;28;20037;-72
2022/11/09 05:03:41;;;;;;;2.95;1.48;;;13.90;84.30;;;;;;5032532;28;20044;-73
2022/11/09 05:08:55;;;;;;;4.25;1.55;;;13.90;83.80;;;;;;5052465;28;20029;-72
2022/11/09 05:11:21;;;;;;;3.72;1.40;;;13.90;83.90;;;;;;5052733;28;20036;-72
2022/11/09 05:13:47;;;;;;;1.98;1.40;;;13.90;83.70;;;;;;5049932;28;20036;-73
2022/11/09 05:16:16;;;;;;;3.50;1.40;;;14.00;84.30;;;;;;5046034;28;20033;-72
2022/11/09 05:18:42;;;;;;;2.40;1.45;;;14.00;83.60;;;;;;5050465;28;20033;-72
2022/11/09 05:21:08;;;;;;;3.53;1.42;;;14.00;83.80;;;;;;5045456;28;20057;-72
2022/11/09 05:26:18;;;;;;;3.05;1.63;;;14.00;83.80;;;;;;5049040;28;20046;-73
2022/11/09 05:28:44;;;;;;;3.03;1.60;;;14.00;83.70;;;;;;5053236;28;20040;-72
2022/11/09 05:31:09;;;;;;;4.25;1.50;;;14.10;83.30;;;;;;5044207;28;20075;-72
2022/11/09 05:33:35;;;;;;;2.80;1.50;;;14.10;83.20;;;;;;5028810;28;20102;-72
2022/11/09 05:36:02;;;;;;;2.33;1.67;;;14.10;82.90;;;;;;5049547;28;20033;-73
2022/11/09 05:38:28;;;;;;;2.97;1.77;;;14.10;82.50;;;;;;5046468;28;20033;-73
2022/11/09 05:40:54;;;;;;;2.10;1.40;;;14.10;82.40;;;;;;5050940;28;20037;-73
2022/11/09 05:43:20;;;;;;;2.22;1.30;;;14.10;82.30;;;;;;5030364;28;20086;-72
2022/11/09 05:45:46;;;;;;;3.80;1.38;;;14.10;82.70;;;;;;5045851;28;20053;-72
2022/11/09 05:48:14;;;;;;;2.45;1.58;;;14.10;82.80;;;;;;5045268;28;20053;-72
2022/11/09 05:50:40;;;;;;;2.90;1.13;;;14.10;82.30;;;;;;5050561;28;20043;-72
2022/11/09 05:53:14;;;;;;;3.30;1.50;;;14.00;82.60;;;;;;5051781;28;20083;-73
2022/11/09 05:55:40;;;;;;;1.42;1.30;;;14.10;82.60;;;;;;5048910;28;20033;-72
2022/11/09 05:58:06;;;;;;;1.65;1.30;;;14.10;82.20;;;;;;5046929;28;20136;-72
2022/11/09 06:00:32;;;;;;;2.55;1.58;;;14.00;82.40;;;;;;5030316;28;20025;-73
2022/11/09 06:03:06;;;;;;;2.13;1.40;;;14.00;82.80;;;;;;5028097;28;20039;-73
2022/11/09 06:05:33;;;;;;;1.98;1.45;;;14.10;83.10;;;;;;5051555;28;20055;-72
2022/11/09 06:08:06;;;;;;;3.83;1.73;;;14.10;82.50;;;;;;5048747;28;20078;-73
2022/11/09 06:10:32;;;;;;;3.38;1.55;;;14.20;82.60;;;;;;5045906;28;20491;-73
2022/11/09 06:12:58;;;;;;;3.40;1.50;;;14.20;82.70;;;;;;5051814;28;20036;-73
2022/11/09 06:15:24;;;;;;;3.00;1.75;;;14.10;83.00;;;;;;5044191;28;20705;-72
2022/11/09 06:17:54;;;;;;;5.78;2.50;;;14.00;83.40;;;;;;5046958;28;20134;-73
2022/11/09 06:20:21;;;;;;;2.30;1.55;;;14.00;83.60;;;;;;5046657;28;20715;-72
2022/11/09 06:22:53;;;;;;;1.88;1.42;;;14.10;83.90;;;;;;5045265;28;20041;-72
2022/11/09 06:25:19;;;;;;;2.10;1.52;;;14.10;84.20;;;;;;5032003;28;20075;-72
2022/11/09 06:27:45;;;;;;;2.50;1.70;;;14.00;84.90;;;;;;5053464;28;20437;-73
2022/11/09 06:30:11;;;;;;;2.67;1.70;;;14.10;85.20;;;;;;5041776;28;20039;-72
2022/11/09 06:32:37;;;;;;;2.63;1.70;;;14.00;86.10;;;;;;5042977;28;20028;-73
2022/11/09 06:35:03;;;;;;;3.30;1.60;;;14.00;86.40;;;;;;5046741;28;20528;-73
2022/11/09 06:37:28;;;;;;;4.10;1.63;;;14.00;87.70;;;;;;5048040;28;20056;-73
2022/11/09 06:39:54;;;;;;;4.55;1.95;;;14.00;87.70;;;;;;5052753;28;20063;-72
2022/11/09 06:42:20;;;;;;;3.03;1.70;;;14.00;88.10;;;;;;5045064;28;20151;-73
2022/11/09 06:44:46;;;;;;;3.03;1.77;;;13.90;89.40;;;;;;5052262;28;21155;-73
2022/11/09 06:47:11;;;;;;;3.33;1.67;;;13.80;89.90;;;;;;5044415;28;20598;-73
2022/11/09 06:49:37;;;;;;;1.90;1.65;;;13.80;90.40;;;;;;5049110;28;20602;-81
2022/11/09 06:52:03;;;;;;;3.60;2.03;;;13.70;90.50;;;;;;5055166;28;20044;-81
2022/11/09 06:54:29;;;;;;;3.60;1.80;;;13.70;90.80;;;;;;5069511;28;20407;-81
2022/11/09 06:56:55;;;;;;;4.35;1.55;;;13.60;91.20;;;;;;5050911;28;20091;-81
2022/11/09 06:59:21;;;;;;;4.00;1.85;;;13.60;91.60;;;;;;5055037;28;20044;-81
2022/11/09 07:01:51;;;;;;;2.00;1.70;;;13.50;92.10;;;;;;5041122;28;20032;-82
2022/11/09 07:04:17;;;;;;;3.10;1.70;;;13.40;92.70;;;;;;5062840;28;20055;-81
2022/11/09 07:06:42;;;;;;;2.67;1.60;;;13.40;92.90;;;;;;5056274;28;20047;-81
2022/11/09 07:09:09;;;;;;;4.15;2.00;;;13.30;93.30;;;;;;5057953;28;20665;-81
2022/11/09 07:11:35;;;;;;;3.72;1.80;;;13.30;93.40;;;;;;5048395;28;20121;-82
2022/11/09 07:14:01;;;;;;;5.60;2.10;;;13.20;93.60;;;;;;5062204;28;20480;-81
2022/11/09 07:16:30;;;;;;;5.03;2.20;;;13.20;93.90;;;;;;5055352;28;20155;-81
2022/11/09 07:18:56;;;;;;;3.60;2.30;;;13.30;94.00;;;;;;5047640;28;20075;-82
2022/11/09 07:21:22;;;;;;;3.50;1.67;;;13.30;94.00;;;;;;5056032;28;20464;-81
2022/11/09 07:23:48;;;;;;;4.53;2.10;;;13.30;94.00;;;;;;5062494;28;20111;-82
2022/11/09 07:26:15;;;;;;;4.00;2.22;;;13.30;94.30;;;;;;5051167;28;20866;-82
2022/11/09 07:28:41;;;;;;;3.92;2.70;;;13.30;94.50;;;;;;5072057;28;20037;-81
2022/11/09 07:31:07;;;;;;;3.92;1.85;;;13.30;94.50;;;;;;5056835;28;20832;-82
2022/11/09 07:33:33;;;;;;;3.15;2.03;;;13.20;94.50;;;;;;5051216;28;20944;-82
2022/11/09 07:36:01;;;;;;;4.47;1.80;;;13.20;94.40;;;;;;5050441;28;20210;-81
2022/11/09 07:38:30;;;;;;;6.45;2.20;;;13.10;94.80;;;;;;5047132;28;20044;-81
2022/11/09 07:41:00;;;;;;;2.55;1.98;;;13.10;94.80;;;;;;5060909;28;20060;-80
2022/11/09 07:43:27;;;;;;;5.13;2.30;;;13.10;94.90;;;;;;5058687;28;20656;-81
2022/11/09 07:45:55;;;;;;;3.83;2.08;;;13.20;95.00;;;;;;5046151;28;20438;-82
2022/11/09 07:48:22;;;;;;;3.85;1.95;;;13.20;95.10;;;;;;5036670;28;20052;-79
2022/11/09 07:50:47;;;;;;;2.90;1.90;;;13.20;94.90;;;;;;5045166;28;20025;-73
2022/11/09 07:53:14;;;;;;;3.55;2.20;;;13.20;95.00;;;;;;5049495;28;20118;-74
2022/11/09 07:55:41;;;;;;;6.28;2.30;;;13.10;95.20;;;;;;5048719;28;20033;-73
2022/11/09 07:58:12;;;;;;;4.57;2.00;;;13.10;95.30;;;;;;5050019;28;20035;-73
2022/11/09 08:00:40;;;;;;;7.82;2.53;;;13.20;95.50;;;;;;5051402;28;20029;-74
2022/11/09 08:03:06;;;;;;;6.05;2.50;;;13.10;95.60;;;;;;5050570;28;20037;-74
2022/11/09 08:05:33;;;;;;;3.38;2.03;;;13.10;95.70;;;;;;5048820;28;20079;-81
2022/11/09 08:08:02;;;;;;;2.83;2.50;;;13.00;95.80;;;;;;5047101;28;20032;-81
2022/11/09 08:10:29;;;;;;;6.95;2.65;;;12.90;96.10;;;;;;5045989;28;20036;-80
2022/11/09 08:12:58;;;;;;;3.42;2.20;;;12.90;96.30;;;;;;5046857;28;20080;-80
2022/11/09 08:15:24;;;;;;;3.45;2.25;;;12.90;96.50;;;;;;5047537;28;20045;-80
2022/11/09 08:17:50;;;;;;;4.07;2.13;;;12.90;96.50;;;;;;5049594;28;20048;-73
2022/11/09 08:20:16;;;;;;;5.70;2.30;;;12.90;96.50;;;;;;5045031;28;20025;-87
2022/11/09 08:22:43;;;;;;;5.32;2.30;;;13.00;96.40;;;;;;5047998;28;20032;-82
2022/11/09 08:25:10;;;;;;;3.92;2.10;;;13.10;96.30;;;;;;5046090;28;20037;-80
2022/11/09 08:27:39;;;;;;;4.80;2.83;;;13.00;96.30;;;;;;5041895;28;20091;-81
2022/11/09 08:30:20;;;;;;;6.70;2.35;;;13.10;96.40;;;;;;5029517;28;20045;-81
2022/11/09 08:32:47;;;;;;;3.95;2.13;;;13.00;96.50;;;;;;5032822;28;20127;-81
2022/11/09 08:35:16;;;;;;;3.63;2.35;;;13.10;96.60;;;;;;5032378;28;20029;-72
2022/11/09 08:37:44;;;;;;;4.22;2.40;;;13.10;96.60;;;;;;5035404;28;20299;-72
2022/11/09 08:40:10;;;;;;;2.60;1.92;;;13.10;96.70;;;;;;5030954;28;20080;-74
2022/11/09 08:42:36;;;;;;;3.60;2.35;;;13.20;96.50;;;;;;5033798;28;20108;-73
2022/11/09 08:45:02;;;;;;;3.13;2.17;;;13.10;96.70;;;;;;5032091;28;20511;-81
2022/11/09 08:47:28;;;;;;;3.70;2.15;;;13.10;96.70;;;;;;5024606;28;20029;-73
2022/11/09 08:49:54;;;;;;;3.80;2.30;;;13.20;96.30;;;;;;5030074;28;20587;-73
2022/11/09 08:52:20;;;;;;;3.17;2.28;;;13.20;96.50;;;;;;5034281;28;20144;-72
2022/11/09 08:54:46;;;;;;;2.80;1.60;;;13.20;96.50;;;;;;5029711;28;20064;-71
2022/11/09 08:57:12;;;;;;;3.58;2.10;;;13.30;96.30;;;;;;5034492;28;20033;-72
2022/11/09 08:59:38;;;;;;;2.65;2.08;;;13.20;96.40;;;;;;5025051;28;20037;-71
2022/11/09 09:02:04;;;;;;;4.43;2.03;;;13.40;96.50;;;;;;5025677;28;20048;-71
2022/11/09 09:04:30;;;;;;;4.43;2.35;;;13.30;96.30;;;;;;5025496;28;20489;-71
2022/11/09 09:06:56;;;;;;;4.05;2.13;;;13.30;96.50;;;;;;5032326;28;20098;-71
2022/11/09 09:09:21;;;;;;;5.53;2.28;;;13.30;96.50;;;;;;5032053;28;20093;-71
2022/11/09 09:11:47;;;;;;;2.53;2.30;;;13.40;96.50;;;;;;5033971;28;20739;-71
2022/11/09 09:14:14;;;;;;;5.82;2.80;;;13.50;96.40;;;;;;5025219;28;20037;-70
2022/11/09 09:16:41;;;;;;;4.78;2.47;;;13.60;96.50;;;;;;5026170;28;20167;-72
2022/11/09 09:19:06;;;;;;;3.72;2.20;;;13.90;95.60;;;;;;5028182;28;20034;-70
2022/11/09 09:21:32;;;;;;;2.75;2.20;;;14.30;95.20;;;;;;5026115;28;20036;-70
2022/11/09 09:23:58;;;;;;;5.18;2.30;;;14.50;94.50;;;;;;5027148;28;20060;-68
2022/11/09 09:26:24;;;;;;;4.18;2.25;;;14.60;93.90;;;;;;5024683;28;20714;-70
2022/11/09 09:28:50;;;;;;;3.65;2.42;;;14.60;93.80;;;;;;5027240;28;20044;-69
2022/11/09 09:31:16;;;;;;;5.68;2.38;;;14.40;94.20;;;;;;5028324;28;20055;-71
2022/11/09 09:33:42;;;;;;;2.28;1.92;;;14.40;94.70;;;;;;5022168;28;20029;-79
2022/11/09 09:36:19;;;;;;;3.35;2.20;;;14.50;94.60;;;;;;5024427;28;20033;-69
2022/11/09 09:38:45;;;;;;;3.63;2.00;;;14.70;93.90;;;;;;5027196;28;20030;-67
2022/11/09 09:41:36;;;;;;;2.17;1.90;;;14.80;93.50;;;;;;5027056;28;20030;-73
2022/11/09 09:44:15;;;;;;;3.10;2.55;;;14.60;94.00;;;;;;5026364;28;20813;-69
2022/11/09 09:46:58;;;;;;;3.85;2.00;;;14.70;93.80;;;;;;5027316;28;20029;-68
2022/11/09 09:49:30;;;;;;;2.97;1.88;;;14.70;93.80;;;;;;5020144;28;20044;-67
2022/11/09 09:52:03;;;;;;;3.83;2.13;;;14.60;93.80;;;;;;5022752;28;20094;-74
2022/11/09 09:54:33;;;;;;;5.20;2.20;;;14.50;94.00;;;;;;5024051;28;20349;-74
2022/11/09 09:57:01;;;;;;;3.92;2.10;;;14.50;94.30;;;;;;5032371;28;20561;-73
2022/11/09 09:59:39;;;;;;;3.30;2.17;;;14.50;94.40;;;;;;5033057;28;20037;-72
2022/11/09 10:02:24;;;;;;;4.13;2.33;;;14.50;94.30;;;;;;5033373;28;20034;-73
2022/11/09 10:04:51;;;;;;;2.30;2.00;;;14.70;93.60;;;;;;5026183;28;20071;-73
2022/11/09 10:08:01;;;;;;;6.28;2.33;;;14.90;93.90;;;;;;5020551;28;21136;-73
2022/11/09 10:10:37;;;;;;;3.25;2.20;;;15.50;92.60;;;;;;5004063;28;20033;-73
2022/11/09 10:14:05;;;;;;;4.35;2.58;;;15.40;92.60;;;;;;5027223;28;20144;-73
2022/11/09 10:17:02;;;;;;;2.85;2.20;;;15.10;93.10;;;;;;5025862;28;20029;-73
2022/11/09 10:19:31;;;;;;;6.07;2.03;;;14.90;93.30;;;;;;5023262;28;20505;-73
2022/11/09 10:22:36;;;;;;;3.53;2.42;;;14.90;94.00;;;;;;5028138;28;20034;-73
2022/11/09 10:25:36;;;;;;;2.40;1.60;;;15.70;92.70;;;;;;5028599;28;20040;-72
2022/11/09 10:28:09;;;;;;;3.38;1.80;;;18.00;87.40;;;;;;5024813;28;20041;-79
2022/11/09 10:30:35;;;;;;;2.88;1.92;;;19.20;80.60;;;;;;5026852;28;20037;-81
2022/11/09 10:33:09;;;;;;;4.22;1.90;;;18.80;81.30;;;;;;5023697;28;20040;-80
2022/11/09 10:36:01;;;;;;;2.38;1.70;;;18.20;83.20;;;;;;5022129;28;20030;-74
2022/11/09 10:38:34;;;;;;;4.55;1.85;;;18.40;82.60;;;;;;5025470;28;20041;-75
2022/11/09 10:41:33;;;;;;;4.05;2.10;;;19.80;77.80;;;;;;5028581;28;20131;-75
2022/11/09 10:44:19;;;;;;;2.78;1.88;;;21.10;71.30;;;;;;5035195;28;20149;-75
2022/11/09 10:47:12;;;;;;;2.75;1.80;;;21.80;68.60;;;;;;5031710;28;20117;-75
2022/11/09 10:50:18;;;;;;;2.70;1.85;;;22.40;65.60;;;;;;5034728;28;20094;-75
2022/11/09 10:53:16;;;;;;;3.92;1.75;;;23.40;62.00;;;;;;5028448;28;20055;-75
2022/11/09 10:56:14;;;;;;;2.88;1.95;;;23.50;61.30;;;;;;5028994;28;20044;-75
2022/11/09 10:58:58;;;;;;;1.90;1.50;;;22.80;62.70;;;;;;5028259;28;20040;-75
2022/11/09 11:01:42;;;;;;;2.13;1.70;;;21.00;67.50;;;;;;5025501;28;20090;-75
2022/11/09 11:04:27;;;;;;;3.78;1.90;;;19.00;74.40;;;;;;5026749;28;20098;-75
2022/11/09 11:07:19;;;;;;;2.03;1.70;;;17.70;80.80;;;;;;5035135;28;20136;-74
2022/11/09 11:10:13;;;;;;;2.78;1.73;;;17.00;84.80;;;;;;5025770;28;20056;-74
2022/11/09 11:13:04;;;;;;;3.00;1.92;;;16.60;87.30;;;;;;5026137;28;20091;-74
2022/11/09 11:15:48;;;;;;;3.47;1.80;;;16.20;89.20;;;;;;5038217;28;20043;-74
2022/11/09 11:18:34;;;;;;;3.35;1.98;;;16.20;90.20;;;;;;5030550;28;20404;-74
2022/11/09 11:21:21;;;;;;;3.60;1.77;;;16.10;90.70;;;;;;5024486;28;20132;-72
2022/11/09 11:24:19;;;;;;;3.17;2.00;;;16.00;90.80;;;;;;5026479;28;20040;-72
2022/11/09 11:27:09;;;;;;;3.67;1.63;;;15.90;91.20;;;;;;5039017;28;20102;-72
2022/11/09 11:30:27;;;;;;;2.97;1.80;;;15.90;91.50;;;;;;5039707;28;20052;-70
2022/11/09 11:33:15;;;;;;;2.25;1.50;;;16.00;91.20;;;;;;5034190;28;20079;-70
2022/11/09 11:36:22;;;;;;;3.38;1.40;;;16.10;91.30;;;;;;5029215;28;20156;-70
2022/11/09 11:39:35;;;;;;;4.28;1.60;;;16.20;91.10;;;;;;5032333;28;20102;-70
2022/11/09 11:42:38;;;;;;;3.15;1.33;;;16.30;90.70;;;;;;5030441;28;20086;-74
2022/11/09 11:45:34;;;;;;;1.90;1.40;;;16.30;90.90;;;;;;5026782;28;20195;-78
2022/11/09 11:48:48;;;;;;;3.38;1.30;;;16.30;90.90;;;;;;5025928;28;20056;-76
2022/11/09 11:51:35;;;;;;;6.90;1.60;;;16.20;91.10;;;;;;5025688;28;20099;-78
2022/11/09 11:54:57;;;;;;;2.63;1.50;;;16.30;90.90;;;;;;5026900;28;20528;-68
2022/11/09 11:57:57;;;;;;;2.78;1.50;;;16.50;90.90;;;;;;5031883;28;20799;-68
2022/11/09 12:00:58;;;;;;;3.45;1.45;;;16.50;90.20;;;;;;5026050;28;20042;-67
2022/11/09 12:04:19;;;;;;;1.35;1.15;;;16.50;90.60;;;;;;5027331;28;20099;-68
2022/11/09 12:07:30;;;;;;;1.98;1.45;;;16.50;90.10;;;;;;5010923;28;20102;-69
2022/11/09 12:10:30;;;;;;;1.65;1.20;;;16.40;90.40;;;;;;5034966;28;20085;-68
2022/11/09 12:13:26;;;;;;;5.57;1.48;;;16.60;90.30;;;;;;5023740;28;20088;-68
2022/11/09 12:16:29;;;;;;;1.20;0.93;;;16.70;90.50;;;;;;5025831;28;20049;-68
2022/11/09 12:19:29;;;;;;;1.70;1.42;;;16.80;89.40;;;;;;5026923;28;20114;-73
2022/11/09 12:22:42;;;;;;;2.30;1.33;;;16.90;89.40;;;;;;5029420;28;20979;-68
2022/11/09 12:25:50;;;;;;;2.25;0.85;;;16.90;89.30;;;;;;5029530;28;20079;-73
2022/11/09 12:29:09;;;;;;;1.10;1.00;;;17.00;89.50;;;;;;5023350;28;20156;-75
2022/11/09 12:32:02;;;;;;;2.22;1.00;;;16.90;86.90;;;;;;5030864;28;20052;-73
2022/11/09 12:35:14;;;;;;;1.23;0.80;;;16.80;87.80;;;;;;5029821;28;20099;-73
2022/11/09 12:38:05;;;;;;;2.00;1.27;;;16.60;88.80;;;;;;5030765;28;20044;-72
2022/11/09 12:41:13;;;;;;;0.80;0.80;;;16.60;89.00;;;;;;5025932;28;20083;-73
2022/11/09 12:44:01;;;;;;;1.40;0.73;;;16.70;87.80;;;;;;5030403;28;20689;-73
2022/11/09 12:46:53;;;;;;;4.10;1.10;;;16.70;88.10;;;;;;5028537;28;20103;-72
2022/11/09 12:49:40;;;;;;;2.03;1.20;;;16.80;87.40;;;;;;5029251;28;20090;-75
2022/11/09 12:52:27;;;;;;;0.88;0.70;;;16.70;87.10;;;;;;5027218;28;20102;-73
2022/11/09 12:55:30;;;;;;;3.35;1.00;;;16.60;88.80;;;;;;5030455;28;20640;-73
2022/11/09 12:58:32;;;;;;;2.42;1.00;;;16.60;88.20;;;;;;5041792;28;20091;-72
2022/11/09 13:01:25;;;;;;;1.77;0.80;;;16.50;88.10;;;;;;5029152;28;20399;-72
2022/11/09 13:04:17;;;;;;;1.67;0.88;;;16.50;88.80;;;;;;5024518;28;20079;-72
2022/11/09 13:07:28;;;;;;;1.20;0.98;;;16.60;88.30;;;;;;5025133;28;20040;-73
2022/11/09 13:10:33;;;;;;;3.25;0.80;;;16.60;88.10;;;;;;5026521;28;20052;-73
2022/11/09 13:13:21;;;;;;;0.80;0.80;;;16.60;88.20;;;;;;5026468;28;20164;-73
2022/11/09 13:16:17;;;;;;;4.25;0.90;;;16.70;88.60;;;;;;5030314;28;20713;-73
2022/11/09 13:19:02;;;;;;;1.88;1.02;;;16.70;88.40;;;;;;5023539;28;20044;-73
2022/11/09 13:21:47;;;;;;;1.75;0.98;;;16.70;88.20;;;;;;5033617;28;20707;-73
2022/11/09 13:24:33;;;;;;;4.13;1.20;;;16.40;89.00;;;;;;5024115;28;20569;-74
2022/11/09 13:27:46;;;;;;;0.75;0.60;;;16.40;89.40;;;;;;5027254;28;20056;-72